createdAt,value
2023-04-18T00:00:50.115Z,1198.00
2023-04-18T00:01:50.243Z,1200.00
2023-04-18T00:02:50.338Z,1200.00
2023-04-18T00:03:50.464Z,1196.00
2023-04-18T00:04:50.493Z,1196.00
2023-04-18T00:05:50.282Z,1199.00
2023-04-18T00:06:50.328Z,1191.00
2023-04-18T00:07:50.337Z,1193.00
2023-04-18T00:08:50.329Z,1192.00
2023-04-18T00:09:50.352Z,1191.00
2023-04-18T00:10:50.367Z,1186.00
2023-04-18T00:11:50.408Z,1189.00
2023-04-18T00:12:50.438Z,1191.00
2023-04-18T00:13:50.491Z,1189.00
2023-04-18T00:14:50.517Z,1188.00
2023-04-18T00:15:50.519Z,1186.00
2023-04-18T00:16:50.567Z,1188.00
2023-04-18T00:17:50.567Z,1188.00
2023-04-18T00:18:50.591Z,1188.00
2023-04-18T00:19:50.571Z,1188.00
2023-04-18T00:20:50.579Z,1188.00
2023-04-18T00:21:50.587Z,1192.00
2023-04-18T00:22:50.583Z,1190.00
2023-04-18T00:23:50.584Z,1193.00
2023-04-18T00:24:50.583Z,1194.00
2023-04-18T00:25:50.603Z,1187.00
2023-04-18T00:26:50.640Z,1192.00
2023-04-18T00:27:50.703Z,1191.00
2023-04-18T00:28:50.751Z,1193.00
2023-04-18T00:29:50.837Z,1198.00
2023-04-18T00:30:50.894Z,1196.00
2023-04-18T00:31:50.840Z,1192.00
2023-04-18T00:32:51.025Z,1192.00
2023-04-18T00:33:50.906Z,1186.00
2023-04-18T00:34:50.922Z,1191.00
2023-04-18T00:35:50.927Z,1195.00
2023-04-18T00:36:50.986Z,1192.00
2023-04-18T00:37:50.981Z,1189.00
2023-04-18T00:38:51.019Z,1184.00
2023-04-18T00:39:51.049Z,1180.00
2023-04-18T00:40:51.099Z,1183.00
2023-04-18T00:41:51.136Z,1187.00
2023-04-18T00:42:51.178Z,1185.00
2023-04-18T00:43:51.218Z,1182.00
2023-04-18T00:44:51.234Z,1184.00
2023-04-18T00:45:51.311Z,1183.00
2023-04-18T00:46:51.312Z,1186.00
2023-04-18T00:47:51.331Z,1182.00
2023-04-18T00:48:51.341Z,1184.00
2023-04-18T00:49:51.357Z,1187.00
2023-04-18T00:50:51.365Z,1185.00
2023-04-18T00:51:51.376Z,1190.00
2023-04-18T00:52:51.408Z,1189.00
2023-04-18T00:53:51.433Z,1186.00
2023-04-18T00:54:51.463Z,1184.00
2023-04-18T00:55:51.535Z,1180.00
2023-04-18T00:56:51.592Z,1179.00
2023-04-18T00:57:51.624Z,1181.00
2023-04-18T00:58:51.649Z,1183.00
2023-04-18T00:59:51.645Z,1185.00
2023-04-18T01:00:51.623Z,1183.00
2023-04-18T01:01:51.677Z,1182.00
2023-04-18T01:02:51.708Z,1184.00
2023-04-18T01:03:51.749Z,1184.00
2023-04-18T01:04:51.660Z,1192.00
2023-04-18T01:05:51.689Z,1193.00
2023-04-18T01:06:51.743Z,1198.00
2023-04-18T01:07:51.752Z,1193.00
2023-04-18T01:08:51.764Z,1188.00
2023-04-18T01:09:51.789Z,1183.00
2023-04-18T01:10:51.803Z,1187.00
2023-04-18T01:11:51.817Z,1189.00
2023-04-18T01:12:51.834Z,1189.00
2023-04-18T01:13:51.844Z,1187.00
2023-04-18T01:14:51.851Z,1185.00
2023-04-18T01:15:51.872Z,1178.00
2023-04-18T01:16:51.862Z,1177.00
2023-04-18T01:17:51.908Z,1181.00
2023-04-18T01:18:51.933Z,1181.00
2023-04-18T01:19:51.983Z,1186.00
2023-04-18T01:20:52.005Z,1186.00
2023-04-18T01:21:52.025Z,1182.00
2023-04-18T01:22:52.032Z,1179.00
2023-04-18T01:23:52.052Z,1180.00
2023-04-18T01:24:52.048Z,1183.00
2023-04-18T01:25:52.043Z,1184.00
2023-04-18T01:26:52.050Z,1181.00
2023-04-18T01:27:52.056Z,1180.00
2023-04-18T01:28:52.105Z,1179.00
2023-04-18T01:29:52.164Z,1182.00
2023-04-18T01:30:52.262Z,1185.00
2023-04-18T01:31:52.264Z,1184.00
2023-04-18T01:32:52.315Z,1184.00
2023-04-18T01:33:52.361Z,1189.00
2023-04-18T01:34:52.374Z,1193.00
2023-04-18T01:35:52.407Z,1191.00
2023-04-18T01:36:52.463Z,1187.00
2023-04-18T01:37:52.488Z,1183.00
2023-04-18T01:38:52.519Z,1179.00
2023-04-18T01:39:52.572Z,1182.00
2023-04-18T01:40:52.581Z,1181.00
2023-04-18T01:41:52.630Z,1182.00
2023-04-18T01:42:52.635Z,1179.00
2023-04-18T01:43:52.653Z,1176.00
2023-04-18T01:44:52.680Z,1178.00
2023-04-18T01:45:52.708Z,1180.00
2023-04-18T01:46:52.742Z,1174.00
2023-04-18T01:47:52.791Z,1172.00
2023-04-18T01:48:52.753Z,1171.00
2023-04-18T01:49:52.785Z,1175.00
2023-04-18T01:50:52.782Z,1170.00
2023-04-18T01:51:52.805Z,1170.00
2023-04-18T01:52:52.825Z,1166.00
2023-04-18T01:53:52.814Z,1166.00
2023-04-18T01:54:52.819Z,1168.00
2023-04-18T01:55:52.829Z,1169.00
2023-04-18T01:56:52.835Z,1169.00
2023-04-18T01:57:52.836Z,1167.00
2023-04-18T01:58:52.840Z,1168.00
2023-04-18T01:59:52.839Z,1169.00
2023-04-18T02:00:52.920Z,1171.00
2023-04-18T02:01:52.960Z,1172.00
2023-04-18T02:02:53.012Z,1177.00
2023-04-18T02:03:53.163Z,1165.00
2023-04-18T02:04:52.858Z,1168.00
2023-04-18T02:05:52.850Z,1167.00
2023-04-18T02:06:52.852Z,1168.00
2023-04-18T02:07:52.856Z,1174.00
2023-04-18T02:08:52.853Z,1174.00
2023-04-18T02:09:52.846Z,1172.00
2023-04-18T02:10:52.843Z,1170.00
2023-04-18T02:11:52.835Z,1172.00
2023-04-18T02:12:52.840Z,1169.00
2023-04-18T02:13:52.838Z,1169.00
2023-04-18T02:14:52.856Z,1170.00
2023-04-18T02:15:52.838Z,1170.00
2023-04-18T02:16:52.898Z,1175.00
2023-04-18T02:17:52.888Z,1174.00
2023-04-18T02:18:52.838Z,1174.00
2023-04-18T02:19:52.810Z,1174.00
2023-04-18T02:20:52.823Z,1180.00
2023-04-18T02:21:52.796Z,1179.00
2023-04-18T02:22:52.810Z,1177.00
2023-04-18T02:23:52.801Z,1172.00
2023-04-18T02:24:52.792Z,1179.00
2023-04-18T02:25:52.790Z,1176.00
2023-04-18T02:26:52.791Z,1176.00
2023-04-18T02:27:52.789Z,1176.00
2023-04-18T02:28:52.787Z,1173.00
2023-04-18T02:29:52.788Z,1166.00
2023-04-18T02:30:52.786Z,1166.00
2023-04-18T02:31:52.789Z,1164.00
2023-04-18T02:32:52.782Z,1165.00
2023-04-18T02:33:52.768Z,1163.00
2023-04-18T02:34:52.756Z,1164.00
2023-04-18T02:35:52.760Z,1163.00
2023-04-18T02:36:52.759Z,1164.00
2023-04-18T02:37:52.743Z,1165.00
2023-04-18T02:38:52.740Z,1165.00
2023-04-18T02:39:52.720Z,1167.00
2023-04-18T02:40:52.715Z,1163.00
2023-04-18T02:41:52.707Z,1160.00
2023-04-18T02:42:52.698Z,1158.00
2023-04-18T02:43:52.713Z,1159.00
2023-04-18T02:44:52.689Z,1162.00
2023-04-18T02:45:52.731Z,1162.00
2023-04-18T02:46:52.682Z,1161.00
2023-04-18T02:47:55.928Z,1164.00
2023-04-18T02:48:52.638Z,1165.00
2023-04-18T02:49:52.611Z,1164.00
2023-04-18T02:50:52.570Z,1162.00
2023-04-18T02:51:52.534Z,1156.00
2023-04-18T02:52:52.480Z,1154.00
2023-04-18T02:53:52.467Z,1156.00
2023-04-18T02:54:52.412Z,1155.00
2023-04-18T02:55:52.378Z,1158.00
2023-04-18T02:56:52.341Z,1156.00
2023-04-18T02:57:52.309Z,1153.00
2023-04-18T02:58:52.283Z,1156.00
2023-04-18T02:59:52.236Z,1160.00
2023-04-18T03:00:52.204Z,1158.00
2023-04-18T03:01:52.362Z,1160.00
2023-04-18T03:02:52.150Z,1160.00
2023-04-18T03:03:52.090Z,1157.00
2023-04-18T03:04:52.069Z,1154.00
2023-04-18T03:05:52.023Z,1155.00
2023-04-18T03:06:51.957Z,1142.00
2023-04-18T03:07:51.925Z,1142.00
2023-04-18T03:08:51.866Z,1155.00
2023-04-18T03:09:51.836Z,1145.00
2023-04-18T03:10:51.800Z,1145.00
2023-04-18T03:11:51.755Z,1146.00
2023-04-18T03:12:51.715Z,1144.00
2023-04-18T03:13:51.705Z,1140.00
2023-04-18T03:14:51.650Z,1149.00
2023-04-18T03:15:51.629Z,1151.00
2023-04-18T03:16:53.816Z,1154.00
2023-04-18T03:17:51.550Z,1154.00
2023-04-18T03:18:51.496Z,1151.00
2023-04-18T03:19:51.448Z,1148.00
2023-04-18T03:20:51.406Z,1143.00
2023-04-18T03:21:51.359Z,1145.00
2023-04-18T03:22:51.304Z,1144.00
2023-04-18T03:23:51.274Z,1146.00
2023-04-18T03:24:51.245Z,1145.00
2023-04-18T03:25:51.205Z,1148.00
2023-04-18T03:26:51.169Z,1146.00
2023-04-18T03:27:51.128Z,1156.00
2023-04-18T03:28:51.086Z,1141.00
2023-04-18T03:29:51.057Z,1147.00
2023-04-18T03:30:51.067Z,1145.00
2023-04-18T03:31:50.977Z,1146.00
2023-04-18T03:32:50.958Z,1149.00
2023-04-18T03:33:51.464Z,1152.00
2023-04-18T03:34:50.878Z,1149.00
2023-04-18T03:35:50.837Z,1143.00
2023-04-18T03:36:50.804Z,1143.00
2023-04-18T03:37:50.763Z,1142.00
2023-04-18T03:38:50.725Z,1141.00
2023-04-18T03:39:50.690Z,1146.00
2023-04-18T03:40:50.653Z,1147.00
2023-04-18T03:41:50.622Z,1149.00
2023-04-18T03:42:50.580Z,1144.00
2023-04-18T03:43:50.545Z,1137.00
2023-04-18T03:44:50.506Z,1141.00
2023-04-18T03:45:50.465Z,1140.00
2023-04-18T03:46:50.425Z,1146.00
2023-04-18T03:47:50.463Z,1148.00
2023-04-18T03:48:50.360Z,1148.00
2023-04-18T03:49:50.328Z,1150.00
2023-04-18T03:50:50.288Z,1141.00
2023-04-18T03:51:50.258Z,1143.00
2023-04-18T03:52:50.224Z,1144.00
2023-04-18T03:53:50.214Z,1148.00
2023-04-18T03:54:50.154Z,1149.00
2023-04-18T03:55:50.120Z,1144.00
2023-04-18T03:56:50.099Z,1148.00
2023-04-18T03:57:50.050Z,1141.00
2023-04-18T03:58:50.026Z,1139.00
2023-04-18T03:59:49.988Z,1140.00
2023-04-18T04:00:49.962Z,1138.00
2023-04-18T04:01:49.944Z,1141.00
2023-04-18T04:02:50.007Z,1139.00
2023-04-18T04:03:50.062Z,1139.00
2023-04-18T04:04:49.877Z,1135.00
2023-04-18T04:05:49.800Z,1139.00
2023-04-18T04:06:49.758Z,1137.00
2023-04-18T04:07:49.739Z,1137.00
2023-04-18T04:08:49.696Z,1136.00
2023-04-18T04:09:49.665Z,1140.00
2023-04-18T04:10:49.615Z,1139.00
2023-04-18T04:11:49.581Z,1136.00
2023-04-18T04:12:49.559Z,1140.00
2023-04-18T04:13:49.520Z,1140.00
2023-04-18T04:14:49.488Z,1137.00
2023-04-18T04:15:49.455Z,1137.00
2023-04-18T04:16:49.463Z,1137.00
2023-04-18T04:17:49.449Z,1133.00
2023-04-18T04:18:49.364Z,1131.00
2023-04-18T04:19:49.337Z,1132.00
2023-04-18T04:20:49.298Z,1133.00
2023-04-18T04:21:49.274Z,1133.00
2023-04-18T04:22:49.247Z,1129.00
2023-04-18T04:23:49.237Z,1130.00
2023-04-18T04:24:49.231Z,1131.00
2023-04-18T04:25:49.220Z,1132.00
2023-04-18T04:26:49.217Z,1131.00
2023-04-18T04:27:49.199Z,1132.00
2023-04-18T04:28:49.184Z,1131.00
2023-04-18T04:29:49.213Z,1132.00
2023-04-18T04:30:49.186Z,1130.00
2023-04-18T04:31:49.186Z,1126.00
2023-04-18T04:32:49.149Z,1129.00
2023-04-18T04:33:49.132Z,1125.00
2023-04-18T04:34:49.121Z,1123.00
2023-04-18T04:35:49.110Z,1122.00
2023-04-18T04:36:49.104Z,1124.00
2023-04-18T04:37:49.090Z,1127.00
2023-04-18T04:38:49.095Z,1126.00
2023-04-18T04:39:49.079Z,1118.00
2023-04-18T04:40:49.075Z,1121.00
2023-04-18T04:41:49.061Z,1119.00
2023-04-18T04:42:49.051Z,1118.00
2023-04-18T04:43:49.037Z,1112.00
2023-04-18T04:44:49.066Z,1111.00
2023-04-18T04:45:49.065Z,1114.00
2023-04-18T04:46:49.027Z,1116.00
2023-04-18T04:47:49.081Z,1119.00
2023-04-18T04:48:49.001Z,1122.00
2023-04-18T04:49:48.993Z,1124.00
2023-04-18T04:50:48.983Z,1125.00
2023-04-18T04:51:48.982Z,1124.00
2023-04-18T04:52:48.966Z,1121.00
2023-04-18T04:53:48.959Z,1116.00
2023-04-18T04:54:48.948Z,1116.00
2023-04-18T04:55:48.937Z,1120.00
2023-04-18T04:56:48.944Z,1124.00
2023-04-18T04:57:48.930Z,1127.00
2023-04-18T04:58:48.916Z,1127.00
2023-04-18T04:59:48.899Z,1121.00
2023-04-18T05:00:48.900Z,1120.00
2023-04-18T05:01:49.048Z,1119.00
2023-04-18T05:02:48.985Z,1121.00
2023-04-18T05:03:49.001Z,1113.00
2023-04-18T05:04:48.851Z,1126.00
2023-04-18T05:05:48.831Z,1127.00
2023-04-18T05:06:48.826Z,1131.00
2023-04-18T05:07:48.817Z,1130.00
2023-04-18T05:08:48.831Z,1127.00
2023-04-18T05:09:48.801Z,1126.00
2023-04-18T05:10:48.792Z,1128.00
2023-04-18T05:11:48.796Z,1126.00
2023-04-18T05:12:48.996Z,1127.00
2023-04-18T05:13:48.765Z,1127.00
2023-04-18T05:14:48.753Z,1123.00
2023-04-18T05:15:48.739Z,1119.00
2023-04-18T05:16:48.754Z,1117.00
2023-04-18T05:17:48.767Z,1122.00
2023-04-18T05:18:48.690Z,1118.00
2023-04-18T05:19:48.687Z,1118.00
2023-04-18T05:20:48.661Z,1116.00
2023-04-18T05:21:48.658Z,1118.00
2023-04-18T05:22:48.669Z,1115.00
2023-04-18T05:23:48.654Z,1116.00
2023-04-18T05:24:48.635Z,1108.00
2023-04-18T05:25:48.707Z,1114.00
2023-04-18T05:26:48.613Z,1112.00
2023-04-18T05:27:48.590Z,1119.00
2023-04-18T05:28:48.577Z,1156.00
2023-04-18T05:29:48.579Z,1167.00
2023-04-18T05:30:48.600Z,1214.00
2023-04-18T05:31:48.567Z,1206.00
2023-04-18T05:32:48.624Z,1211.00
2023-04-18T05:33:49.010Z,1304.00
2023-04-18T05:34:48.465Z,1361.00
2023-04-18T05:35:48.429Z,1401.00
2023-04-18T05:36:48.407Z,1473.00
2023-04-18T05:37:48.371Z,1536.00
2023-04-18T05:38:48.363Z,1551.00
2023-04-18T05:39:48.402Z,1572.00
2023-04-18T05:40:48.374Z,1615.00
2023-04-18T05:41:48.373Z,1651.00
2023-04-18T05:42:48.420Z,1680.00
2023-04-18T05:44:01.825Z,1726.00
2023-04-18T05:44:49.381Z,1756.00
2023-04-18T05:45:48.345Z,1773.00
2023-04-18T05:46:48.379Z,1828.00
2023-04-18T05:47:48.267Z,1846.00
2023-04-18T05:48:48.168Z,1882.00
2023-04-18T05:49:48.120Z,1913.00
2023-04-18T05:50:48.057Z,1962.00
2023-04-18T05:51:48.006Z,2005.00
2023-04-18T05:52:47.962Z,2016.00
2023-04-18T05:53:47.908Z,2058.00
2023-04-18T05:54:47.846Z,2112.00
2023-04-18T05:55:47.803Z,2128.00
2023-04-18T05:56:47.744Z,2151.00
2023-04-18T05:57:48.436Z,2161.00
2023-04-18T05:58:47.645Z,2226.00
2023-04-18T05:59:47.573Z,2335.00
2023-04-18T06:00:47.529Z,2365.00
2023-04-18T06:01:47.483Z,2407.00
2023-04-18T06:02:47.521Z,2425.00
2023-04-18T06:03:47.673Z,2477.00
2023-04-18T06:04:47.425Z,2510.00
2023-04-18T06:05:47.394Z,2524.00
2023-04-18T06:06:47.284Z,2552.00
2023-04-18T06:07:47.272Z,2596.00
2023-04-18T06:08:47.238Z,2631.00
2023-04-18T06:09:47.217Z,2663.00
2023-04-18T06:10:47.179Z,2687.00
2023-04-18T06:11:47.152Z,2702.00
2023-04-18T06:12:47.145Z,2722.00
2023-04-18T06:13:47.190Z,2787.00
2023-04-18T06:14:47.091Z,2812.00
2023-04-18T06:15:47.088Z,2816.00
2023-04-18T06:16:47.027Z,2845.00
2023-04-18T06:17:47.044Z,2881.00
2023-04-18T06:18:46.962Z,2948.00
2023-04-18T06:19:46.927Z,2963.00
2023-04-18T06:20:46.896Z,2973.00
2023-04-18T06:21:46.860Z,3059.00
2023-04-18T06:22:46.843Z,3058.00
2023-04-18T06:23:46.779Z,3085.00
2023-04-18T06:24:46.735Z,3079.00
2023-04-18T06:25:46.691Z,3061.00
2023-04-18T06:26:46.679Z,2984.00
2023-04-18T06:27:46.733Z,2960.00
2023-04-18T06:28:46.587Z,2951.00
2023-04-18T06:29:46.561Z,2976.00
2023-04-18T06:30:46.543Z,2990.00
2023-04-18T06:31:46.522Z,2993.00
2023-04-18T06:32:46.615Z,2984.00
2023-04-18T06:33:46.535Z,2990.00
2023-04-18T06:34:46.478Z,2989.00
2023-04-18T06:35:46.480Z,2989.00
2023-04-18T06:36:46.475Z,2992.00
2023-04-18T06:37:46.495Z,2986.00
2023-04-18T06:38:46.488Z,2989.00
2023-04-18T06:39:46.510Z,2978.00
2023-04-18T06:40:46.517Z,2974.00
2023-04-18T06:41:47.459Z,2972.00
2023-04-18T06:42:46.551Z,2966.00
2023-04-18T06:43:59.672Z,2962.00
2023-04-18T06:44:47.457Z,2965.00
2023-04-18T06:45:46.567Z,2970.00
2023-04-18T06:46:46.340Z,2969.00
2023-04-18T06:47:46.290Z,2968.00
2023-04-18T06:48:46.267Z,2968.00
2023-04-18T06:49:46.193Z,2969.00
2023-04-18T06:50:46.140Z,2954.00
2023-04-18T06:51:46.081Z,2946.00
2023-04-18T06:52:46.052Z,2952.00
2023-04-18T06:53:45.972Z,2946.00
2023-04-18T06:54:45.923Z,2945.00
2023-04-18T06:55:45.874Z,2941.00
2023-04-18T06:56:45.827Z,2948.00
2023-04-18T06:57:45.815Z,2946.00
2023-04-18T06:58:46.055Z,2942.00
2023-04-18T06:59:45.765Z,2953.00
2023-04-18T07:00:45.762Z,2937.00
2023-04-18T07:01:45.743Z,2934.00
2023-04-18T07:02:45.882Z,2939.00
2023-04-18T07:03:45.731Z,2935.00
2023-04-18T07:04:45.676Z,2933.00
2023-04-18T07:05:45.648Z,2936.00
2023-04-18T07:06:45.635Z,2936.00
2023-04-18T07:07:45.618Z,2936.00
2023-04-18T07:08:45.595Z,2938.00
2023-04-18T07:09:45.578Z,2934.00
2023-04-18T07:10:45.552Z,2934.00
2023-04-18T07:11:45.524Z,2936.00
2023-04-18T07:12:45.498Z,2932.00
2023-04-18T07:13:46.464Z,2930.00
2023-04-18T07:14:45.398Z,2935.00
2023-04-18T07:15:45.406Z,2923.00
2023-04-18T07:16:45.337Z,2923.00
2023-04-18T07:17:45.319Z,2923.00
2023-04-18T07:18:45.241Z,2985.00
2023-04-18T07:19:45.196Z,3004.00
2023-04-18T07:20:45.143Z,3044.00
2023-04-18T07:21:45.129Z,3061.00
2023-04-18T07:22:45.056Z,3092.00
2023-04-18T07:23:45.536Z,3097.00
2023-04-18T07:24:44.950Z,3158.00
2023-04-18T07:25:44.942Z,3140.00
2023-04-18T07:26:44.872Z,3121.00
2023-04-18T07:27:44.945Z,3025.00
2023-04-18T07:28:44.888Z,2949.00
2023-04-18T07:29:44.885Z,2947.00
2023-04-18T07:30:44.884Z,2943.00
2023-04-18T07:31:44.787Z,2936.00
2023-04-18T07:32:44.777Z,2935.00
2023-04-18T07:33:44.682Z,2944.00
2023-04-18T07:34:44.647Z,2944.00
2023-04-18T07:35:44.588Z,2770.00
2023-04-18T07:36:44.533Z,2032.00
2023-04-18T07:37:44.573Z,1825.00
2023-04-18T07:38:44.459Z,1855.00
2023-04-18T07:39:44.420Z,1620.00
2023-04-18T07:40:44.391Z,1528.00
2023-04-18T07:41:44.362Z,1389.00
2023-04-18T07:42:44.335Z,1368.00
2023-04-18T07:43:44.343Z,1212.00
2023-04-18T07:44:44.968Z,1109.00
2023-04-18T07:45:44.390Z,1080.00
2023-04-18T07:46:44.455Z,1046.00
2023-04-18T07:47:44.529Z,1010.00
2023-04-18T07:48:44.473Z,960.00
2023-04-18T07:49:44.528Z,888.00
2023-04-18T07:50:44.682Z,882.00
2023-04-18T07:51:44.638Z,875.00
2023-04-18T07:52:44.667Z,871.00
2023-04-18T07:53:44.746Z,832.00
2023-04-18T07:54:45.782Z,822.00
2023-04-18T07:55:44.791Z,829.00
2023-04-18T07:56:44.824Z,840.00
2023-04-18T07:57:45.967Z,859.00
2023-04-18T07:58:44.851Z,861.00
2023-04-18T07:59:44.850Z,897.00
2023-04-18T08:00:44.904Z,914.00
2023-04-18T08:01:44.832Z,997.00
2023-04-18T08:02:44.940Z,1061.00
2023-04-18T08:03:45.135Z,1100.00
2023-04-18T08:04:44.984Z,1130.00
2023-04-18T08:05:45.274Z,1191.00
2023-04-18T08:06:44.894Z,1201.00
2023-04-18T08:07:44.924Z,1272.00
2023-04-18T08:08:44.860Z,1272.00
2023-04-18T08:09:44.816Z,1209.00
2023-04-18T08:10:44.782Z,1230.00
2023-04-18T08:11:44.742Z,1236.00
2023-04-18T08:12:44.738Z,1182.00
2023-04-18T08:13:44.704Z,1128.00
2023-04-18T08:14:44.688Z,1118.00
2023-04-18T08:15:44.706Z,1126.00
2023-04-18T08:16:44.758Z,1114.00
2023-04-18T08:17:44.715Z,1101.00
2023-04-18T08:18:44.695Z,1045.00
2023-04-18T08:19:44.724Z,1034.00
2023-04-18T08:20:44.749Z,1009.00
2023-04-18T08:21:44.765Z,990.00
2023-04-18T08:22:57.631Z,973.00
2023-04-18T08:23:45.743Z,968.00
2023-04-18T08:25:01.088Z,953.00
2023-04-18T08:25:45.694Z,930.00
2023-04-18T08:26:44.845Z,930.00
2023-04-18T08:27:44.598Z,1057.00
2023-04-18T08:28:46.097Z,1059.00
2023-04-18T08:29:44.543Z,1085.00
2023-04-18T08:30:44.511Z,1172.00
2023-04-18T08:31:44.551Z,1194.00
2023-04-18T08:32:44.515Z,1253.00
2023-04-18T08:33:44.382Z,1285.00
2023-04-18T08:34:44.342Z,1341.00
2023-04-18T08:35:44.283Z,1368.00
2023-04-18T08:36:44.249Z,1391.00
2023-04-18T08:37:44.305Z,1454.00
2023-04-18T08:38:44.220Z,1476.00
2023-04-18T08:39:44.195Z,1551.00
2023-04-18T08:40:44.156Z,1556.00
2023-04-18T08:41:44.176Z,1594.00
2023-04-18T08:42:44.170Z,1632.00
2023-04-18T08:43:44.181Z,1657.00
2023-04-18T08:44:44.190Z,1724.00
2023-04-18T08:45:44.308Z,1753.00
2023-04-18T08:46:44.204Z,1792.00
2023-04-18T08:47:44.214Z,1805.00
2023-04-18T08:48:44.190Z,1817.00
2023-04-18T08:49:44.169Z,1877.00
2023-04-18T08:50:44.152Z,1921.00
2023-04-18T08:51:44.140Z,1939.00
2023-04-18T08:52:44.117Z,1983.00
2023-04-18T08:53:44.112Z,2000.00
2023-04-18T08:54:44.086Z,2024.00
2023-04-18T08:55:44.058Z,2066.00
2023-04-18T08:56:44.000Z,2085.00
2023-04-18T08:57:43.960Z,2146.00
2023-04-18T08:58:43.951Z,2184.00
2023-04-18T08:59:45.631Z,2201.00
2023-04-18T09:00:43.873Z,2219.00
2023-04-18T09:01:43.894Z,2327.00
2023-04-18T09:02:43.971Z,2315.00
2023-04-18T09:03:43.798Z,2348.00
2023-04-18T09:04:44.581Z,2388.00
2023-04-18T09:05:43.714Z,2395.00
2023-04-18T09:06:43.740Z,2409.00
2023-04-18T09:07:43.624Z,2445.00
2023-04-18T09:08:43.645Z,2497.00
2023-04-18T09:09:43.571Z,2517.00
2023-04-18T09:10:46.083Z,2614.00
2023-04-18T09:11:43.403Z,2601.00
2023-04-18T09:12:43.345Z,2625.00
2023-04-18T09:13:43.284Z,2638.00
2023-04-18T09:14:43.229Z,2691.00
2023-04-18T09:15:43.162Z,2689.00
2023-04-18T09:16:43.142Z,2712.00
2023-04-18T09:17:43.035Z,2782.00
2023-04-18T09:18:42.975Z,2794.00
2023-04-18T09:19:42.913Z,2847.00
2023-04-18T09:20:42.848Z,2863.00
2023-04-18T09:21:42.793Z,2879.00
2023-04-18T09:22:42.729Z,2995.00
2023-04-18T09:23:43.505Z,2990.00
2023-04-18T09:24:42.609Z,3011.00
2023-04-18T09:25:44.809Z,3081.00
2023-04-18T09:26:42.474Z,3081.00
2023-04-18T09:27:42.463Z,3092.00
2023-04-18T09:28:42.352Z,3114.00
2023-04-18T09:29:42.308Z,3143.00
2023-04-18T09:30:42.328Z,3179.00
2023-04-18T09:31:42.172Z,3193.00
2023-04-18T09:32:42.137Z,3222.00
2023-04-18T09:33:42.053Z,3270.00
2023-04-18T09:34:41.984Z,3322.00
2023-04-18T09:35:42.476Z,3343.00
2023-04-18T09:36:41.873Z,3381.00
2023-04-18T09:37:41.797Z,3447.00
2023-04-18T09:38:41.736Z,3464.00
2023-04-18T09:39:41.677Z,3465.00
2023-04-18T09:40:41.593Z,3541.00
2023-04-18T09:41:41.584Z,3549.00
2023-04-18T09:42:41.453Z,3568.00
2023-04-18T09:43:41.410Z,3592.00
2023-04-18T09:44:41.331Z,3607.00
2023-04-18T09:45:41.264Z,3630.00
2023-04-18T09:46:41.314Z,3672.00
2023-04-18T09:47:41.150Z,3687.00
2023-04-18T09:48:41.068Z,3719.00
2023-04-18T09:49:41.002Z,3760.00
2023-04-18T09:50:40.939Z,3787.00
2023-04-18T09:51:40.867Z,3806.00
2023-04-18T09:52:40.796Z,3826.00
2023-04-18T09:53:40.745Z,3864.00
2023-04-18T09:54:40.679Z,3877.00
2023-04-18T09:55:40.598Z,3895.00
2023-04-18T09:56:41.518Z,3910.00
2023-04-18T09:57:40.468Z,3940.00
2023-04-18T09:58:40.407Z,4011.00
2023-04-18T09:59:40.351Z,4030.00
2023-04-18T10:00:40.293Z,4057.00
2023-04-18T10:01:40.266Z,4085.00
2023-04-18T10:02:40.223Z,4089.00
2023-04-18T10:03:40.152Z,4121.00
2023-04-18T10:04:40.166Z,4124.00
2023-04-18T10:05:40.049Z,4138.00
2023-04-18T10:06:39.948Z,4148.00
2023-04-18T10:07:40.597Z,4194.00
2023-04-18T10:08:39.797Z,4223.00
2023-04-18T10:09:39.702Z,4291.00
2023-04-18T10:10:39.647Z,4324.00
2023-04-18T10:11:39.555Z,4314.00
2023-04-18T10:12:39.536Z,4308.00
2023-04-18T10:13:39.512Z,4268.00
2023-04-18T10:14:39.556Z,4254.00
2023-04-18T10:15:40.378Z,4200.00
2023-04-18T10:16:39.535Z,4187.00
2023-04-18T10:17:41.236Z,4189.00
2023-04-18T10:18:40.296Z,4185.00
2023-04-18T10:19:39.234Z,4177.00
2023-04-18T10:20:39.174Z,4151.00
2023-04-18T10:21:39.105Z,4156.00
2023-04-18T10:22:40.054Z,4156.00
2023-04-18T10:23:39.007Z,4163.00
2023-04-18T10:24:38.920Z,4173.00
2023-04-18T10:25:39.605Z,4175.00
2023-04-18T10:26:38.794Z,4180.00
2023-04-18T10:27:39.568Z,4177.00
2023-04-18T10:28:39.472Z,4160.00
2023-04-18T10:29:38.638Z,4162.00
2023-04-18T10:30:38.573Z,4179.00
2023-04-18T10:31:38.754Z,4173.00
2023-04-18T10:32:38.553Z,4158.00
2023-04-18T10:33:41.007Z,4137.00
2023-04-18T10:34:38.374Z,4135.00
2023-04-18T10:35:40.377Z,4139.00
2023-04-18T10:36:38.284Z,4130.00
2023-04-18T10:37:38.202Z,4142.00
2023-04-18T10:38:38.150Z,4147.00
2023-04-18T10:39:38.159Z,4152.00
2023-04-18T10:40:38.059Z,4141.00
2023-04-18T10:41:37.999Z,4144.00
2023-04-18T10:42:37.966Z,4145.00
2023-04-18T10:43:37.912Z,4147.00
2023-04-18T10:44:37.872Z,4146.00
2023-04-18T10:45:37.801Z,4139.00
2023-04-18T10:46:37.835Z,4142.00
2023-04-18T10:47:37.820Z,4139.00
2023-04-18T10:48:38.597Z,4128.00
2023-04-18T10:49:37.651Z,4119.00
2023-04-18T10:50:37.560Z,4120.00
2023-04-18T10:51:37.517Z,4117.00
2023-04-18T10:52:37.459Z,4115.00
2023-04-18T10:53:37.388Z,4117.00
2023-04-18T10:54:37.348Z,4110.00
2023-04-18T10:55:37.460Z,4107.00
2023-04-18T10:56:37.249Z,4100.00
2023-04-18T10:57:37.217Z,4102.00
2023-04-18T10:58:37.215Z,4117.00
2023-04-18T10:59:37.111Z,4121.00
2023-04-18T11:00:37.062Z,4117.00
2023-04-18T11:01:37.097Z,4111.00
2023-04-18T11:02:37.133Z,4109.00
2023-04-18T11:03:36.967Z,4108.00
2023-04-18T11:04:36.901Z,4106.00
2023-04-18T11:05:36.788Z,4101.00
2023-04-18T11:06:36.725Z,4092.00
2023-04-18T11:07:36.745Z,4095.00
2023-04-18T11:08:36.641Z,4090.00
2023-04-18T11:09:36.570Z,4089.00
2023-04-18T11:10:36.521Z,4087.00
2023-04-18T11:11:36.460Z,4083.00
2023-04-18T11:12:36.560Z,4076.00
2023-04-18T11:13:36.356Z,4077.00
2023-04-18T11:14:36.292Z,4070.00
2023-04-18T11:15:36.254Z,4054.00
2023-04-18T11:16:36.333Z,4057.00
2023-04-18T11:17:36.329Z,4062.00
2023-04-18T11:18:36.185Z,4045.00
2023-04-18T11:19:36.316Z,4046.00
2023-04-18T11:20:36.201Z,4043.00
2023-04-18T11:21:36.184Z,4049.00
2023-04-18T11:22:36.094Z,4047.00
2023-04-18T11:23:36.068Z,4045.00
2023-04-18T11:24:36.075Z,4036.00
2023-04-18T11:25:36.039Z,4030.00
2023-04-18T11:26:36.283Z,4030.00
2023-04-18T11:27:35.993Z,4027.00
2023-04-18T11:28:35.954Z,4025.00
2023-04-18T11:29:35.933Z,4028.00
2023-04-18T11:30:35.917Z,4022.00
2023-04-18T11:31:35.988Z,4018.00
2023-04-18T11:32:35.895Z,3989.00
2023-04-18T11:33:35.822Z,3980.00
2023-04-18T11:34:35.815Z,3981.00
2023-04-18T11:35:35.766Z,3990.00
2023-04-18T11:36:35.752Z,3992.00
2023-04-18T11:37:35.717Z,3993.00
2023-04-18T11:38:35.676Z,3989.00
2023-04-18T11:39:35.716Z,3991.00
2023-04-18T11:40:35.634Z,3989.00
2023-04-18T11:41:35.631Z,3977.00
2023-04-18T11:42:35.625Z,3970.00
2023-04-18T11:43:35.606Z,3973.00
2023-04-18T11:44:36.363Z,3976.00
2023-04-18T11:45:35.550Z,3973.00
2023-04-18T11:46:35.567Z,3977.00
2023-04-18T11:47:35.530Z,3970.00
2023-04-18T11:48:35.495Z,3963.00
2023-04-18T11:49:35.457Z,3973.00
2023-04-18T11:50:35.434Z,3964.00
2023-04-18T11:51:35.398Z,3947.00
2023-04-18T11:52:35.382Z,3933.00
2023-04-18T11:53:35.400Z,3938.00
2023-04-18T11:54:35.341Z,3939.00
2023-04-18T11:55:35.313Z,3944.00
2023-04-18T11:56:36.805Z,3943.00
2023-04-18T11:57:35.290Z,3947.00
2023-04-18T11:58:35.271Z,3952.00
2023-04-18T11:59:35.249Z,3949.00
2023-04-18T12:00:36.140Z,3943.00
2023-04-18T12:01:35.211Z,3940.00
2023-04-18T12:02:35.269Z,3936.00
2023-04-18T12:03:35.295Z,3925.00
2023-04-18T12:04:35.319Z,3901.00
2023-04-18T12:05:35.286Z,3908.00
2023-04-18T12:06:35.105Z,3902.00